Details From MWCR - Owen Roberts Intl
To KNEW - Lakefront
Flight Number -
Tags Generated
Created
Modified
Stats Distance 799 nm / 1,480 km
Max Altitude 0 ft / 0 m
Waypoints 3
Social Downloads 0
Likes 0
Share VATSIM

Download

Looking for another format? Having issues loading an existing format? Contact us
Advertisement - Login to hide

Notes

Generated

Route

MWCR KH90K KNEW

ID Type Via Altitude Latitude Longitude Leg Dist Tot Dist Heading (true) Name
O MWCR APT - 0 ft / 0 m 19.29042˚ -81.36764˚ - 0 nm - -
KH90K FIX - 0 ft / 0 m 30.00000˚ -90.00000˚ 796 nm 796 nm 325° / 322° -
O KNEW APT - 0 ft / 0 m 30.03705˚ -90.03062˚ 2 nm 799 nm 324° / 324° Lakefront

Altitude Profile

Advertisement - Login to hide

Weather


0- 5 10 15 20 25 30 35+ Temperature / ° C

Clouds and Precipitation
Forecast for 2017-12-16 06:00 UTC. Updated 2 hours ago

Ground ~20,000 ft ~40,000 ft Winds

MWCR

Details ICAO MWCR (GCM)
Name Owen Roberts Intl
Region Cayman Islands
Timezone America/Cayman (UTC-5.0)
Stats Elevation 7 ft / 2 m (AMSL)
Location 19.292776° -81.357760°
Runways 1
Magnetic Variation 4.989° W

METAR

Not found

TAF

TAF MWCR 152300Z 1600/1624 12010KT 9999 SCT020 BECMG 1612/1614 07015KT

Decode

Departure Runways

ID Width Length Bearing (true) Bearing (mag) Surface Threshold Offset Overrun Length
08 148 ft / 45 m 7,016 ft / 2,139 m 75.84° 80.83° Asphalt 0 ft / 0 m 0 ft / 0 m
26 148 ft / 45 m 7,016 ft / 2,139 m 255.85° 260.84° Asphalt 400 ft / 122 m 0 ft / 0 m

KNEW

Details ICAO KNEW
Name Lakefront
Region United States
Timezone America/Chicago (UTC-6.0)
Stats Elevation 7 ft / 2 m (AMSL)
Location 30.041857° -90.027690°
Runways 3
Magnetic Variation 0.887° W

METAR

KNEW 160453Z 02011KT 10SM OVC110 08/02 A3029 RMK AO2 SLP250 T00830017

Decode

TAF

KNEW 152325Z 1600/1624 02006KT P6SM BKN100 BKN150 FM161400 07008KT P6SM BKN200 FM162100 09009KT P6SM BKN030 BKN150

Decode

Destination Runways

ID Width Length Bearing (true) Bearing (mag) Surface Threshold Offset Overrun Length
09 75 ft / 23 m 3,108 ft / 947 m 89.20° 90.09° Asphalt 0 ft / 0 m 59 ft / 18 m
18L 75 ft / 23 m 3,710 ft / 1,131 m 179.26° 180.15° Asphalt 0 ft / 0 m 0 ft / 0 m
18R 150 ft / 46 m 6,904 ft / 2,104 m 179.27° 180.16° Asphalt 240 ft / 73 m 0 ft / 0 m
27 75 ft / 23 m 3,108 ft / 947 m 269.20° 270.09° Asphalt 0 ft / 0 m 49 ft / 15 m
36L 150 ft / 46 m 6,904 ft / 2,104 m 359.27° 0.16° Asphalt 820 ft / 250 m 0 ft / 0 m
36R 75 ft / 23 m 3,710 ft / 1,131 m 359.26° 0.15° Asphalt 0 ft / 0 m 0 ft / 0 m

Approach Navaids

Runway Type Ident Frequency Range Bearing (true) Bearing (mag) Slope Elevation
18R Localiser INEW 111.30 MHz 18 nm / 33 km 179.26° 180.14° - 7 ft / 2 m (AMSL)
18R Glidescope INEW 111.30 MHz 10 nm / 19 km 179.27° 180.15° 3.00° 4 ft / 1 m (AMSL)
18R DME INEW 111.30 MHz 18 nm / 33 km - - - 21 ft / 6 m (AMSL)